CheckWX is a tool to help pilots better visualize weather data.  It is not intended as a substitute for an official pre-flight weather briefing.

22:09:48 UTC

KP28 METAR
Medicine Lodge Airport
Medicine Lodge, Kansas, USA
Current

1 hour ago

KP28 202056Z AUTO 23003KT 04/M04 A2984 RMK AO1 SLP117 T00391039 55003
Observed
Feb-20 @ 20:56 UTC
Wind
  • 230° at 3 KTS
Visibility
Temperature
C / 39°F
Dewpoint
-4°C / 25°F
Humidity
56%
Altimeter
29.84" Hg
Pressure
1011.7 hPa
Previous

2 hours ago

KP28 201956Z AUTO 29005KT 03/M04 A2983 RMK AO1 SLP115 T00331039
Observed
Feb-20 @ 19:56 UTC
Wind
  • 290° at 5 KTS
Visibility
Temperature
C / 37°F
Dewpoint
-4°C / 25°F
Humidity
60%
Altimeter
29.83" Hg
Pressure
1011.5 hPa
Previous

3 hours ago

KP28 201856Z AUTO 31007KT 03/M03 A2984 RMK AO1 SLP116 T00281033
Observed
Feb-20 @ 18:56 UTC
Wind
  • 310° at 7 KTS
Visibility
Temperature
C / 37°F
Dewpoint
-3°C / 27°F
Humidity
65%
Altimeter
29.84" Hg
Pressure
1011.6 hPa